createdAt,value
2023-05-22T00:01:52.171Z,16.98
2023-05-22T00:04:21.759Z,17.33
2023-05-22T00:06:49.488Z,16.45
2023-05-22T00:09:16.759Z,16.70
2023-05-22T00:11:43.685Z,18.40
2023-05-22T00:14:10.547Z,17.25
2023-05-22T00:16:37.465Z,17.73
2023-05-22T00:19:04.678Z,17.17
2023-05-22T00:21:35.174Z,17.25
2023-05-22T00:24:02.653Z,17.55
2023-05-22T00:26:29.550Z,16.85
2023-05-22T00:28:56.329Z,16.40
2023-05-22T00:31:24.095Z,17.55
2023-05-22T00:33:51.017Z,17.20
2023-05-22T00:36:19.043Z,17.20
2023-05-22T00:38:46.589Z,17.30
2023-05-22T00:41:13.835Z,17.42
2023-05-22T00:43:40.711Z,17.35
2023-05-22T00:46:10.321Z,17.23
2023-05-22T00:48:37.145Z,18.83
2023-05-22T00:51:04.440Z,17.33
2023-05-22T00:53:31.940Z,18.52
2023-05-22T00:55:59.846Z,17.33
2023-05-22T00:58:27.673Z,17.08
2023-05-22T01:00:55.851Z,17.35
2023-05-22T01:03:27.218Z,16.65
2023-05-22T01:05:54.873Z,17.15
2023-05-22T01:08:22.149Z,16.63
2023-05-22T01:10:54.698Z,17.63
2023-05-22T01:13:34.715Z,17.10
2023-05-22T01:16:13.409Z,18.23
2023-05-22T01:18:46.504Z,16.50
2023-05-22T01:21:22.542Z,17.38
2023-05-22T01:24:48.589Z,17.45
2023-05-22T01:27:39.360Z,17.58
2023-05-22T01:30:27.127Z,16.98
2023-05-22T01:32:58.424Z,16.45
2023-05-22T01:35:26.445Z,16.75
2023-05-22T01:37:54.922Z,17.23
2023-05-22T01:40:22.593Z,16.85
2023-05-22T01:42:49.951Z,17.30
2023-05-22T01:45:16.809Z,18.23
2023-05-22T01:47:43.967Z,17.77
2023-05-22T01:50:11.832Z,20.02
2023-05-22T01:52:54.240Z,18.50
2023-05-22T01:55:40.595Z,18.80
2023-05-22T01:58:18.051Z,18.17
2023-05-22T02:00:47.343Z,18.77
2023-05-22T02:03:19.472Z,17.60
2023-05-22T02:05:52.136Z,18.55
2023-05-22T02:08:21.490Z,19.10
2023-05-22T02:10:50.984Z,17.65
2023-05-22T02:13:18.462Z,18.20
2023-05-22T02:15:47.232Z,18.00
2023-05-22T02:18:14.174Z,18.58
2023-05-22T02:20:42.017Z,19.08
2023-05-22T02:23:09.501Z,18.35
2023-05-22T02:25:36.352Z,18.60
2023-05-22T02:28:03.184Z,17.98
2023-05-22T02:30:30.033Z,18.02
2023-05-22T02:32:58.643Z,17.80
2023-05-22T02:35:25.515Z,18.55
2023-05-22T02:37:52.797Z,18.48
2023-05-22T02:40:19.627Z,18.63
2023-05-22T02:42:46.402Z,19.20
2023-05-22T02:45:13.334Z,18.98
2023-05-22T02:47:40.252Z,19.13
2023-05-22T02:50:07.903Z,19.02
2023-05-22T02:52:35.442Z,18.48
2023-05-22T02:55:02.282Z,18.95
2023-05-22T02:57:29.022Z,18.70
2023-05-22T02:59:55.841Z,18.30
2023-05-22T03:02:22.615Z,18.73
2023-05-22T03:04:49.353Z,19.67
2023-05-22T03:07:16.237Z,18.17
2023-05-22T03:09:43.219Z,19.48
2023-05-22T03:12:10.393Z,18.98
2023-05-22T03:14:37.183Z,18.98
2023-05-22T03:17:04.331Z,19.67
2023-05-22T03:19:31.419Z,20.42
2023-05-22T03:21:58.370Z,20.45
2023-05-22T03:24:25.164Z,19.77
2023-05-22T03:26:51.960Z,19.63
2023-05-22T03:29:18.907Z,20.33
2023-05-22T03:31:45.748Z,19.10
2023-05-22T03:34:12.747Z,20.05
2023-05-22T03:36:39.637Z,19.58
2023-05-22T03:39:06.654Z,19.88
2023-05-22T03:41:33.481Z,19.80
2023-05-22T03:44:00.329Z,19.42
2023-05-22T03:46:27.179Z,18.88
2023-05-22T03:48:54.013Z,19.60
2023-05-22T03:51:21.005Z,20.67
2023-05-22T03:53:47.904Z,18.98
2023-05-22T03:56:14.749Z,21.75
2023-05-22T03:58:41.577Z,19.35
2023-05-22T04:01:10.212Z,18.35
2023-05-22T04:03:40.141Z,17.85
2023-05-22T04:06:07.841Z,18.75
2023-05-22T04:08:35.038Z,19.90
2023-05-22T04:11:03.396Z,18.52
2023-05-22T04:13:31.613Z,18.48
2023-05-22T04:15:58.772Z,19.17
2023-05-22T04:18:25.633Z,19.02
2023-05-22T04:20:52.475Z,17.48
2023-05-22T04:23:19.265Z,18.27
2023-05-22T04:25:48.159Z,19.65
2023-05-22T04:28:17.774Z,18.73
2023-05-22T04:30:45.042Z,18.90
2023-05-22T04:33:12.967Z,18.60
2023-05-22T04:35:41.061Z,18.55
2023-05-22T04:38:08.262Z,18.40
2023-05-22T04:40:35.284Z,17.90
2023-05-22T04:43:02.112Z,18.48
2023-05-22T04:45:29.164Z,18.77
2023-05-22T04:47:56.547Z,19.73
2023-05-22T04:50:24.255Z,18.15
2023-05-22T04:52:51.210Z,18.25
2023-05-22T04:55:19.508Z,19.75
2023-05-22T04:57:47.532Z,18.35
2023-05-22T05:00:17.032Z,18.98
2023-05-22T05:02:44.172Z,17.80
2023-05-22T05:05:11.299Z,17.52
2023-05-22T05:07:39.541Z,18.10
2023-05-22T05:10:07.590Z,17.77
2023-05-22T05:12:34.699Z,18.00
2023-05-22T05:15:01.995Z,18.33
2023-05-22T05:17:29.130Z,17.85
2023-05-22T05:19:56.028Z,18.58
2023-05-22T05:22:23.204Z,17.88
2023-05-22T05:24:50.093Z,18.13
2023-05-22T05:27:17.159Z,18.92
2023-05-22T05:29:44.062Z,19.25
2023-05-22T05:32:12.787Z,17.35
2023-05-22T05:34:39.669Z,16.88
2023-05-22T05:37:06.504Z,16.42
2023-05-22T05:39:33.597Z,16.88
2023-05-22T05:42:00.578Z,16.50
2023-05-22T05:44:27.509Z,16.92
2023-05-22T05:46:54.987Z,17.48
2023-05-22T05:49:22.556Z,17.27
2023-05-22T05:51:49.352Z,16.45
2023-05-22T05:54:16.271Z,16.38
2023-05-22T05:56:43.130Z,17.25
2023-05-22T05:59:10.200Z,17.05
2023-05-22T06:01:38.837Z,17.17
2023-05-22T06:04:05.791Z,16.02
2023-05-22T06:06:36.618Z,18.08
2023-05-22T06:09:06.524Z,16.98
2023-05-22T06:11:34.206Z,17.15
2023-05-22T06:14:05.266Z,17.02
2023-05-22T06:16:32.230Z,16.85
2023-05-22T06:19:00.025Z,16.73
2023-05-22T06:21:27.085Z,15.32
2023-05-22T06:23:53.903Z,13.32
2023-05-22T06:26:20.742Z,12.43
2023-05-22T06:28:47.549Z,12.88
2023-05-22T06:31:14.679Z,12.18
2023-05-22T06:33:43.515Z,12.40
2023-05-22T06:36:14.409Z,12.10
2023-05-22T06:38:41.238Z,11.77
2023-05-22T06:41:08.282Z,12.43
2023-05-22T06:43:35.198Z,12.05
2023-05-22T06:46:02.139Z,11.55
2023-05-22T06:48:29.066Z,12.15
2023-05-22T06:50:56.025Z,11.38
2023-05-22T06:53:24.129Z,10.90
2023-05-22T06:55:51.330Z,11.27
2023-05-22T06:58:18.965Z,10.43
2023-05-22T07:00:45.879Z,11.52
2023-05-22T07:03:12.896Z,11.35
2023-05-22T07:05:39.852Z,11.60
2023-05-22T07:08:08.640Z,10.73
2023-05-22T07:10:35.470Z,11.10
2023-05-22T07:13:02.562Z,11.68
2023-05-22T07:15:29.642Z,12.10
2023-05-22T07:17:56.554Z,11.27
2023-05-22T07:20:23.573Z,11.02
2023-05-22T07:22:50.348Z,10.73
2023-05-22T07:25:17.216Z,10.60
2023-05-22T07:27:44.199Z,10.18
2023-05-22T07:30:11.495Z,10.00
2023-05-22T07:32:38.681Z,10.13
2023-05-22T07:35:06.042Z,9.70
2023-05-22T07:37:33.327Z,10.32
2023-05-22T07:40:00.210Z,9.70
2023-05-22T07:42:27.609Z,9.88
2023-05-22T07:44:54.408Z,9.52
2023-05-22T07:47:21.354Z,10.07
2023-05-22T07:49:48.251Z,9.60
2023-05-22T07:52:14.990Z,9.75
2023-05-22T07:54:43.491Z,10.23
2023-05-22T07:57:12.744Z,9.60
2023-05-22T07:59:39.508Z,10.20
2023-05-22T08:02:08.717Z,9.70
2023-05-22T08:04:35.796Z,10.70
2023-05-22T08:07:02.815Z,9.70
2023-05-22T08:09:29.705Z,9.60
2023-05-22T08:11:56.691Z,9.93
2023-05-22T08:14:23.479Z,9.65
2023-05-22T08:16:50.320Z,10.27
2023-05-22T08:19:17.267Z,9.98
2023-05-22T08:21:44.199Z,10.43
2023-05-22T08:24:11.030Z,9.80
2023-05-22T08:26:39.008Z,10.45
2023-05-22T08:29:05.944Z,10.35
2023-05-22T08:31:34.634Z,10.45
2023-05-22T08:34:05.206Z,10.02
2023-05-22T08:36:34.419Z,9.65
2023-05-22T08:39:01.744Z,10.48
2023-05-22T08:41:29.960Z,10.27
2023-05-22T08:43:57.304Z,10.25
2023-05-22T08:46:29.356Z,9.95
2023-05-22T08:48:58.174Z,9.88
2023-05-22T08:51:29.654Z,9.63
2023-05-22T08:53:57.579Z,9.98
2023-05-22T08:56:26.063Z,10.20
2023-05-22T08:58:55.227Z,10.57
2023-05-22T09:01:22.947Z,10.65
2023-05-22T09:03:51.610Z,10.10
2023-05-22T09:06:18.878Z,10.23
2023-05-22T09:08:46.370Z,10.07
2023-05-22T09:11:13.493Z,10.18
2023-05-22T09:13:41.587Z,10.57
2023-05-22T09:16:15.225Z,10.18
2023-05-22T09:18:42.843Z,10.20
2023-05-22T09:21:25.840Z,10.50
2023-05-22T09:24:01.769Z,9.88
2023-05-22T09:26:29.807Z,9.90
2023-05-22T09:29:00.264Z,10.88
2023-05-22T09:31:32.096Z,10.50
2023-05-22T09:33:59.954Z,10.80
2023-05-22T09:36:34.272Z,11.23
2023-05-22T09:39:02.211Z,11.00
2023-05-22T09:41:30.902Z,11.70
2023-05-22T09:43:59.745Z,11.32
2023-05-22T09:46:27.922Z,11.27
2023-05-22T09:48:54.868Z,11.00
2023-05-22T09:51:26.833Z,10.45
2023-05-22T09:54:02.532Z,10.70
2023-05-22T09:56:39.362Z,10.55
2023-05-22T09:59:09.818Z,10.57
2023-05-22T10:01:39.384Z,10.75
2023-05-22T10:04:09.082Z,10.65
2023-05-22T10:06:37.353Z,10.60
2023-05-22T10:09:07.908Z,11.70
2023-05-22T10:11:36.133Z,10.25
2023-05-22T10:14:05.249Z,10.35
2023-05-22T10:16:34.460Z,9.93
2023-05-22T10:19:01.477Z,10.82
2023-05-22T10:21:30.427Z,10.20
2023-05-22T10:23:59.377Z,10.57
2023-05-22T10:26:26.692Z,10.38
2023-05-22T10:29:18.284Z,10.23
2023-05-22T10:31:56.049Z,10.18
2023-05-22T10:34:47.328Z,10.52
2023-05-22T10:37:45.544Z,11.05
2023-05-22T10:40:22.317Z,10.70
2023-05-22T10:42:49.233Z,10.68
2023-05-22T10:45:17.007Z,10.25
2023-05-22T10:47:43.960Z,10.40
2023-05-22T10:50:12.193Z,10.52
2023-05-22T10:52:40.548Z,10.70
2023-05-22T10:55:09.465Z,10.82
2023-05-22T10:57:40.253Z,10.50
2023-05-22T11:00:16.008Z,10.98
2023-05-22T11:02:44.803Z,9.75
2023-05-22T11:05:25.775Z,10.13
2023-05-22T11:07:52.781Z,10.07
2023-05-22T11:10:53.207Z,10.38
2023-05-22T11:13:20.080Z,10.30
2023-05-22T11:15:47.051Z,10.57
2023-05-22T11:18:16.814Z,10.15
2023-05-22T11:20:44.613Z,10.23
2023-05-22T11:23:11.878Z,10.73
2023-05-22T11:25:41.539Z,9.43
2023-05-22T11:28:10.848Z,10.65
2023-05-22T11:30:38.521Z,10.93
2023-05-22T11:33:06.864Z,10.73
2023-05-22T11:35:34.322Z,10.65
2023-05-22T11:38:06.061Z,10.27
2023-05-22T11:40:33.017Z,10.30
2023-05-22T11:42:59.858Z,10.02
2023-05-22T11:45:27.287Z,10.30
2023-05-22T11:47:54.356Z,9.55
2023-05-22T11:50:40.193Z,9.57
2023-05-22T11:53:08.408Z,8.73
2023-05-22T11:55:35.275Z,9.93
2023-05-22T11:58:02.962Z,8.93
2023-05-22T12:00:31.609Z,9.23
2023-05-22T12:02:58.981Z,8.82
2023-05-22T12:05:25.911Z,9.35
2023-05-22T12:07:53.155Z,10.50
2023-05-22T12:10:20.107Z,9.68
2023-05-22T12:12:48.313Z,10.57
2023-05-22T12:15:20.461Z,9.73
2023-05-22T12:17:47.342Z,9.65
2023-05-22T12:20:17.057Z,9.73
2023-05-22T12:22:44.196Z,9.10
2023-05-22T12:25:15.668Z,9.63
2023-05-22T12:27:45.013Z,9.45
2023-05-22T12:30:13.911Z,9.18
2023-05-22T12:32:41.156Z,9.32
2023-05-22T12:35:16.170Z,9.63
2023-05-22T12:37:51.864Z,8.35
2023-05-22T12:40:19.311Z,8.38
2023-05-22T12:42:46.307Z,9.00
2023-05-22T12:45:13.740Z,8.20
2023-05-22T12:47:40.668Z,8.32
2023-05-22T12:50:08.427Z,8.38
2023-05-22T12:52:36.321Z,8.60
2023-05-22T12:55:03.520Z,8.18
2023-05-22T12:57:30.332Z,8.48
2023-05-22T12:59:57.178Z,8.52
2023-05-22T13:02:24.086Z,8.98
2023-05-22T13:04:51.081Z,8.50
2023-05-22T13:07:17.987Z,7.65
2023-05-22T13:09:44.861Z,8.38
2023-05-22T13:12:11.810Z,9.10
2023-05-22T13:14:40.870Z,8.48
2023-05-22T13:17:08.065Z,8.32
2023-05-22T13:19:35.179Z,8.80
2023-05-22T13:22:02.098Z,8.93
2023-05-22T13:24:28.992Z,9.13
2023-05-22T13:26:55.854Z,8.93
2023-05-22T13:29:22.665Z,8.32
2023-05-22T13:31:49.620Z,8.45
2023-05-22T13:34:16.616Z,8.15
2023-05-22T13:36:43.693Z,8.48
2023-05-22T13:39:10.559Z,8.73
2023-05-22T13:41:37.404Z,8.18
2023-05-22T13:44:04.221Z,8.48
2023-05-22T13:46:31.320Z,8.52
2023-05-22T13:48:59.755Z,8.40
2023-05-22T13:51:26.947Z,7.78
2023-05-22T13:53:53.925Z,8.23
2023-05-22T13:56:22.625Z,7.68
2023-05-22T13:58:49.846Z,7.70
2023-05-22T14:01:16.683Z,7.22
2023-05-22T14:03:44.890Z,7.50
2023-05-22T14:06:12.008Z,7.43
2023-05-22T14:08:38.944Z,7.95
2023-05-22T14:11:05.812Z,7.90
2023-05-22T14:13:32.715Z,7.95
2023-05-22T14:15:59.496Z,8.13
2023-05-22T14:18:26.284Z,8.05
2023-05-22T14:20:53.170Z,8.25
2023-05-22T14:23:20.062Z,8.80
2023-05-22T14:25:46.949Z,8.05
2023-05-22T14:28:14.339Z,8.25
2023-05-22T14:30:41.382Z,8.48
2023-05-22T14:33:08.235Z,7.97
2023-05-22T14:35:35.110Z,8.13
2023-05-22T14:38:02.298Z,8.43
2023-05-22T14:40:29.205Z,8.60
2023-05-22T14:42:56.143Z,9.02
2023-05-22T14:45:22.997Z,7.60
2023-05-22T14:47:49.907Z,7.85
2023-05-22T14:50:20.120Z,8.52
2023-05-22T14:52:48.698Z,8.63
2023-05-22T14:55:16.209Z,8.30
2023-05-22T14:57:43.105Z,8.63
2023-05-22T15:00:11.155Z,8.15
2023-05-22T15:02:38.201Z,8.63
2023-05-22T15:05:05.889Z,8.30
2023-05-22T15:07:43.093Z,7.60
2023-05-22T15:10:11.423Z,7.68
2023-05-22T15:12:38.303Z,8.13
2023-05-22T15:15:05.610Z,8.07
2023-05-22T15:17:32.715Z,8.00
2023-05-22T15:20:00.007Z,8.63
2023-05-22T15:22:26.754Z,7.97
2023-05-22T15:25:08.294Z,8.38
2023-05-22T15:27:35.887Z,8.07
2023-05-22T15:30:03.605Z,8.30
2023-05-22T15:32:32.326Z,8.40
2023-05-22T15:34:59.294Z,8.65
2023-05-22T15:37:26.155Z,8.40
2023-05-22T15:39:53.528Z,8.88
2023-05-22T15:42:20.441Z,8.57
2023-05-22T15:44:47.198Z,8.85
2023-05-22T15:47:14.064Z,8.00
2023-05-22T15:49:41.378Z,7.50
2023-05-22T15:52:08.195Z,9.45
2023-05-22T15:54:35.060Z,8.48
2023-05-22T15:57:01.829Z,9.27
2023-05-22T15:59:28.597Z,8.68
2023-05-22T16:01:55.387Z,8.50
2023-05-22T16:04:22.298Z,8.48
2023-05-22T16:06:49.227Z,8.23
2023-05-22T16:09:18.727Z,8.35
2023-05-22T16:11:45.827Z,8.73
2023-05-22T16:14:12.670Z,8.20
2023-05-22T16:16:39.625Z,8.38
2023-05-22T16:19:06.667Z,8.68
2023-05-22T16:21:33.844Z,8.55
2023-05-22T16:24:00.773Z,10.05
2023-05-22T16:26:27.593Z,8.60
2023-05-22T16:28:54.570Z,8.98
2023-05-22T16:31:21.587Z,8.43
2023-05-22T16:33:48.461Z,8.88
2023-05-22T16:36:15.286Z,8.65
2023-05-22T16:38:42.228Z,8.05
2023-05-22T16:41:09.241Z,8.32
2023-05-22T16:43:37.964Z,8.13
2023-05-22T16:46:04.781Z,8.30
2023-05-22T16:48:31.534Z,8.77
2023-05-22T16:50:58.306Z,9.38
2023-05-22T16:53:25.135Z,8.98
2023-05-22T16:55:52.277Z,9.35
2023-05-22T16:58:19.369Z,9.40
2023-05-22T17:00:46.324Z,8.73
2023-05-22T17:03:14.353Z,8.35
2023-05-22T17:05:41.537Z,8.75
2023-05-22T17:08:08.736Z,8.98
2023-05-22T17:10:35.674Z,8.85
2023-05-22T17:13:02.613Z,8.15
2023-05-22T17:15:29.400Z,9.20
2023-05-22T17:17:56.310Z,8.82
2023-05-22T17:20:26.146Z,8.55
2023-05-22T17:22:53.064Z,8.85
2023-05-22T17:25:19.954Z,8.43
2023-05-22T17:27:46.816Z,9.27
2023-05-22T17:30:13.696Z,9.18
2023-05-22T17:32:40.516Z,9.48
2023-05-22T17:35:07.630Z,8.40
2023-05-22T17:37:34.422Z,8.73
2023-05-22T17:40:01.361Z,9.60
2023-05-22T17:42:28.178Z,9.20
2023-05-22T17:44:55.126Z,10.10
2023-05-22T17:47:22.165Z,9.65
2023-05-22T17:49:49.050Z,9.18
2023-05-22T17:52:15.909Z,9.07
2023-05-22T17:54:42.791Z,10.82
2023-05-22T17:57:09.703Z,10.38
2023-05-22T17:59:38.458Z,11.27
2023-05-22T18:02:07.254Z,13.10
2023-05-22T18:04:34.092Z,10.90
2023-05-22T18:07:00.847Z,10.00
2023-05-22T18:09:27.637Z,10.25
2023-05-22T18:11:54.700Z,10.13
2023-05-22T18:14:21.481Z,10.30
2023-05-22T18:16:48.310Z,10.52
2023-05-22T18:19:15.286Z,10.50
2023-05-22T18:21:42.169Z,10.13
2023-05-22T18:24:09.053Z,10.70
2023-05-22T18:26:35.955Z,10.23
2023-05-22T18:29:02.761Z,10.48
2023-05-22T18:31:29.711Z,10.05
2023-05-22T18:33:56.730Z,10.23
2023-05-22T18:36:23.617Z,10.10
2023-05-22T18:38:50.494Z,8.68
2023-05-22T18:41:17.286Z,9.07
2023-05-22T18:43:44.112Z,8.48
2023-05-22T18:46:11.050Z,8.65
2023-05-22T18:48:37.950Z,8.68
2023-05-22T18:51:04.856Z,8.30
2023-05-22T18:53:31.796Z,15.00
2023-05-22T18:55:58.691Z,8.35
2023-05-22T18:58:25.858Z,9.55
2023-05-22T19:00:55.708Z,8.48
2023-05-22T19:03:22.674Z,8.23
2023-05-22T19:05:49.598Z,8.75
2023-05-22T19:08:16.541Z,8.45
2023-05-22T19:10:43.459Z,8.65
2023-05-22T19:13:10.268Z,8.65
2023-05-22T19:15:37.839Z,9.25
2023-05-22T19:18:04.686Z,10.23
2023-05-22T19:20:32.959Z,9.45
2023-05-22T19:22:59.866Z,9.70
2023-05-22T19:25:26.679Z,9.30
2023-05-22T19:27:53.527Z,9.77
2023-05-22T19:30:22.054Z,9.02
2023-05-22T19:32:51.448Z,8.93
2023-05-22T19:35:18.314Z,9.10
2023-05-22T19:37:45.657Z,9.65
2023-05-22T19:40:12.596Z,10.00
2023-05-22T19:42:40.138Z,9.40
2023-05-22T19:45:07.773Z,9.63
2023-05-22T19:47:34.682Z,9.32
2023-05-22T19:50:02.317Z,9.65
2023-05-22T19:52:29.113Z,10.13
2023-05-22T19:54:56.071Z,9.50
2023-05-22T19:57:22.934Z,9.82
2023-05-22T19:59:50.549Z,9.48
2023-05-22T20:02:17.420Z,9.90
2023-05-22T20:04:44.363Z,9.95
2023-05-22T20:07:11.206Z,9.55
2023-05-22T20:09:38.063Z,9.10
2023-05-22T20:12:05.261Z,9.50
2023-05-22T20:14:32.010Z,9.00
2023-05-22T20:17:03.064Z,9.98
2023-05-22T20:19:30.284Z,9.73
2023-05-22T20:21:58.473Z,9.05
2023-05-22T20:24:28.261Z,10.18
2023-05-22T20:26:55.133Z,9.40
2023-05-22T20:29:22.279Z,9.55
2023-05-22T20:31:49.424Z,9.43
2023-05-22T20:34:16.356Z,9.43
2023-05-22T20:36:45.190Z,9.82
2023-05-22T20:39:12.090Z,9.75
2023-05-22T20:41:38.892Z,10.50
2023-05-22T20:44:06.655Z,9.70
2023-05-22T20:46:34.008Z,10.57
2023-05-22T20:49:03.668Z,10.23
2023-05-22T20:51:32.866Z,10.77
2023-05-22T20:54:00.253Z,9.98
2023-05-22T20:56:27.723Z,10.30
2023-05-22T20:58:54.998Z,10.18
2023-05-22T21:01:25.146Z,9.95
2023-05-22T21:03:52.029Z,9.63
2023-05-22T21:06:19.457Z,9.75
2023-05-22T21:08:46.312Z,10.77
2023-05-22T21:11:13.271Z,10.25
2023-05-22T21:13:40.087Z,10.40
2023-05-22T21:16:07.161Z,10.27
2023-05-22T21:18:34.095Z,10.18
2023-05-22T21:21:01.042Z,9.93
2023-05-22T21:23:28.046Z,9.60
2023-05-22T21:25:54.834Z,10.45
2023-05-22T21:28:21.649Z,10.30
2023-05-22T21:30:48.496Z,10.18
2023-05-22T21:33:15.355Z,10.40
2023-05-22T21:35:42.195Z,10.02
2023-05-22T21:38:08.972Z,10.25
2023-05-22T21:40:35.820Z,9.75
2023-05-22T21:43:02.593Z,9.40
2023-05-22T21:45:29.460Z,10.32
2023-05-22T21:47:56.321Z,9.95
2023-05-22T21:50:23.172Z,9.95
2023-05-22T21:52:49.980Z,9.80
2023-05-22T21:55:16.828Z,9.75
2023-05-22T21:57:45.778Z,9.68
2023-05-22T22:00:13.493Z,10.18
2023-05-22T22:02:40.503Z,9.38
2023-05-22T22:05:07.915Z,8.73
2023-05-22T22:07:34.737Z,8.90
2023-05-22T22:10:01.567Z,8.25
2023-05-22T22:12:28.383Z,9.32
2023-05-22T22:14:55.241Z,8.80
2023-05-22T22:17:23.963Z,9.77
2023-05-22T22:19:53.781Z,9.02
2023-05-22T22:22:22.838Z,9.52
2023-05-22T22:24:50.007Z,9.32
2023-05-22T22:27:16.915Z,8.35
2023-05-22T22:29:43.949Z,8.93
2023-05-22T22:32:10.889Z,8.55
2023-05-22T22:34:37.830Z,8.68
2023-05-22T22:37:06.223Z,9.43
2023-05-22T22:39:33.187Z,9.45
2023-05-22T22:42:04.353Z,9.35
2023-05-22T22:44:31.989Z,9.43
2023-05-22T22:46:58.801Z,9.95
2023-05-22T22:49:25.611Z,9.95
2023-05-22T22:51:52.804Z,10.50
2023-05-22T22:54:19.694Z,10.68
2023-05-22T22:56:47.479Z,10.25
2023-05-22T22:59:14.324Z,10.32
2023-05-22T23:01:41.180Z,10.70
2023-05-22T23:04:08.203Z,10.15
2023-05-22T23:06:35.475Z,11.00
2023-05-22T23:09:04.054Z,10.40
2023-05-22T23:11:37.690Z,10.65
2023-05-22T23:14:08.658Z,10.80
2023-05-22T23:16:36.721Z,10.10
2023-05-22T23:19:04.472Z,10.45
2023-05-22T23:21:32.703Z,11.35
2023-05-22T23:24:00.828Z,10.65
2023-05-22T23:26:28.358Z,10.95
2023-05-22T23:28:55.277Z,10.43
2023-05-22T23:31:26.277Z,10.88
2023-05-22T23:33:53.359Z,11.00
2023-05-22T23:36:20.148Z,10.95
2023-05-22T23:38:47.336Z,10.07
2023-05-22T23:41:15.455Z,11.05
2023-05-22T23:43:42.588Z,10.75
2023-05-22T23:46:09.579Z,10.55
2023-05-22T23:48:36.309Z,10.30
2023-05-22T23:51:03.699Z,10.68
2023-05-22T23:53:30.574Z,10.85
2023-05-22T23:55:57.566Z,10.20
2023-05-22T23:58:24.331Z,10.43
